Time;durP1;ratioP1;P1;durP2;ratioP2;P2;SDS_P1;SDS_P2;PMS_P1;PMS_P2;Temp;Humidity;BMP_temperature;BMP_pressure;BME280_temperature;BME280_humidity;BME280_pressure;Samples;Min_cycle;Max_cycle;Signal;HPM_P1;HPM_P2
2022/04/01 00:01:23;;;;;;;;;;;;;;;14.49;59.98;97263.78;4471036;32;20075;-94
2022/04/01 00:03:48;;;;;;;;;;;;;;;14.49;59.98;97262.97;4470919;32;20022;-93
2022/04/01 00:06:13;;;;;;;;;;;;;;;14.63;59.98;97266.00;4470896;32;20030;-94
2022/04/01 00:08:38;;;;;;;;;;;;;;;14.61;59.98;97264.50;4471022;32;19985;-94
2022/04/01 00:11:04;;;;;;;;;;;;;;;14.57;59.98;97260.50;4470782;32;20313;-93
2022/04/01 00:13:29;;;;;;;;;;;;;;;14.41;59.98;97260.97;4470760;32;19996;-93
2022/04/01 00:15:54;;;;;;;;;;;;;;;14.17;59.95;97269.16;4472026;32;21093;-94
2022/04/01 00:18:19;;;;;;;;;;;;;;;14.27;59.97;97269.19;4471535;32;19985;-93
2022/04/01 00:20:45;;;;;;;;;;;;;;;14.29;59.97;97268.09;4471625;32;19984;-93
2022/04/01 00:23:12;;;;;;;;;;;;;;;14.35;59.97;97259.72;4470897;32;20355;-94
2022/04/01 00:25:39;;;;;;;;;;;;;;;14.41;59.98;97264.41;4471108;32;19973;-94
2022/04/01 00:28:04;;;;;;;;;;;;;;;14.44;59.97;97263.38;4458770;32;20591;-94
2022/04/01 00:30:29;;;;;;;;;;;;;;;14.55;59.98;97252.78;4458243;32;20004;-94
2022/04/01 00:32:54;;;;;;;;;;;;;;;14.40;59.96;97254.91;4458014;32;20000;-95
2022/04/01 00:35:20;;;;;;;;;;;;;;;14.41;59.97;97248.69;4463440;31;19989;-93
2022/04/01 00:37:45;;;;;;;;;;;;;;;14.37;59.96;97246.50;4488264;31;20280;-92
2022/04/01 00:40:12;;;;;;;;;;;;;;;14.50;59.98;97251.53;4488988;31;20000;-93
2022/04/01 00:42:37;;;;;;;;;;;;;;;14.63;59.97;97252.09;4488539;31;19976;-91
2022/04/01 00:45:03;;;;;;;;;;;;;;;14.71;59.99;97242.63;4488093;31;20014;-92
2022/04/01 00:47:28;;;;;;;;;;;;;;;14.55;59.98;97238.84;4487620;31;20265;-93
2022/04/01 00:49:55;;;;;;;;;;;;;;;14.51;59.97;97233.06;4488522;31;19996;-92
2022/04/01 00:52:21;;;;;;;;;;;;;;;14.73;59.99;97230.22;4489345;31;20003;-93
2022/04/01 00:54:47;;;;;;;;;;;;;;;14.50;59.98;97230.59;4488774;31;19994;-94
2022/04/01 00:57:13;;;;;;;;;;;;;;;14.68;59.99;97239.44;4488464;31;20066;-94
2022/04/01 00:59:39;;;;;;;;;;;;;;;14.58;59.98;97241.19;4488853;31;20052;-94
2022/04/01 01:02:04;;;;;;;;;;;;;;;14.57;59.98;97234.31;4488791;31;19980;-93
2022/04/01 01:04:29;;;;;;;;;;;;;;;14.54;59.98;97230.19;4489188;31;19987;-94
2022/04/01 01:06:56;;;;;;;;;;;;;;;14.46;59.97;97237.06;4489080;31;20004;-94
2022/04/01 01:09:22;;;;;;;;;;;;;;;14.58;59.98;97235.97;4488774;31;19996;-93
2022/04/01 01:11:49;;;;;;;;;;;;;;;14.33;59.96;97245.94;4489089;31;20305;-94
2022/04/01 01:14:15;;;;;;;;;;;;;;;14.69;59.98;97243.72;4489449;31;19948;-94
2022/04/01 01:16:41;;;;;;;;;;;;;;;14.66;59.99;97246.56;4488911;31;19979;-95
2022/04/01 01:19:07;;;;;;;;;;;;;;;14.46;59.97;97245.75;4489315;31;20296;-95
2022/04/01 01:21:32;;;;;;;;;;;;;;;14.45;59.97;97248.50;4489060;31;20712;-95
2022/04/01 01:23:59;;;;;;;;;;;;;;;14.53;59.98;97246.03;4489279;31;20016;-95
2022/04/01 01:26:24;;;;;;;;;;;;;;;14.59;59.98;97248.91;4489380;31;20012;-94
2022/04/01 01:28:50;;;;;;;;;;;;;;;14.65;59.99;97248.38;4488409;31;19983;-92
2022/04/01 01:31:15;;;;;;;;;;;;;;;14.41;59.98;97242.63;4487926;31;20041;-92
2022/04/01 01:33:43;;;;;;;;;;;;;;;14.49;59.98;97252.50;4487664;31;19996;-91
2022/04/01 01:36:09;;;;;;;;;;;;;;;14.59;59.98;97243.69;4486614;31;20051;-91
2022/04/01 01:38:35;;;;;;;;;;;;;;;14.74;59.99;97241.50;4486463;31;19980;-91
2022/04/01 01:41:02;;;;;;;;;;;;;;;14.59;59.98;97235.00;4486433;31;20040;-92
2022/04/01 01:43:27;;;;;;;;;;;;;;;14.66;59.98;97233.50;4486436;31;19969;-90
2022/04/01 01:45:52;;;;;;;;;;;;;;;14.65;59.99;97232.66;4486312;31;20035;-91
2022/04/01 01:48:18;;;;;;;;;;;;;;;14.52;59.97;97233.91;4486215;31;19999;-91
2022/04/01 01:56:31;;;;;;;;;;;;;;;14.57;59.98;97242.16;4482888;32;20041;-90
2022/04/01 01:58:56;;;;;;;;;;;;;;;14.40;59.98;97247.03;4485473;31;19992;-89
2022/04/01 02:01:22;;;;;;;;;;;;;;;14.27;59.97;97238.62;4485693;31;20015;-90
2022/04/01 02:03:47;;;;;;;;;;;;;;;14.58;59.98;97233.34;4485907;31;19981;-90
2022/04/01 02:06:13;;;;;;;;;;;;;;;14.74;59.99;97236.28;4486225;31;20091;-89
2022/04/01 02:08:38;;;;;;;;;;;;;;;14.67;59.99;97240.41;4486263;31;19996;-91
2022/04/01 02:11:03;;;;;;;;;;;;;;;14.55;59.97;97236.25;4486157;31;20039;-91
2022/04/01 02:13:29;;;;;;;;;;;;;;;14.55;59.98;97237.06;4499197;31;20044;-91
2022/04/01 02:15:55;;;;;;;;;;;;;;;14.64;59.99;97236.25;4499171;31;20679;-90
2022/04/01 02:18:23;;;;;;;;;;;;;;;14.42;59.97;97236.44;4499023;31;20007;-91
2022/04/01 02:20:48;;;;;;;;;;;;;;;14.41;59.96;97234.78;4486354;31;19976;-91
2022/04/01 02:23:14;;;;;;;;;;;;;;;14.34;59.97;97231.88;4485610;31;19980;-91
2022/04/01 02:25:42;;;;;;;;;;;;;;;14.46;59.97;97231.81;4485537;31;20011;-90
2022/04/01 02:28:08;;;;;;;;;;;;;;;14.52;59.97;97229.50;4486102;31;20006;-89
2022/04/01 02:30:33;;;;;;;;;;;;;;;14.27;59.97;97235.19;4501725;31;19976;-94
2022/04/01 02:32:59;;;;;;;;;;;;;;;14.45;59.97;97224.94;4488835;31;20032;-96
2022/04/01 02:35:24;;;;;;;;;;;;;;;14.70;59.98;97212.16;4491464;31;19995;-96
2022/04/01 02:37:49;;;;;;;;;;;;;;;14.84;59.99;97207.47;4491894;31;20317;-96
2022/04/01 02:40:15;;;;;;;;;;;;;;;14.73;59.99;97201.41;4493678;31;20282;-96
2022/04/01 02:42:41;;;;;;;;;;;;;;;14.77;59.98;97191.47;4492135;31;20032;-96
2022/04/01 02:45:06;;;;;;;;;;;;;;;14.64;59.99;97188.28;4490051;31;20260;-96
2022/04/01 02:47:32;;;;;;;;;;;;;;;14.54;59.97;97200.56;4490300;31;20048;-96
2022/04/01 02:49:57;;;;;;;;;;;;;;;14.42;59.98;97210.28;4489383;31;19988;-96
2022/04/01 02:52:22;;;;;;;;;;;;;;;14.43;59.97;97202.34;4489810;31;20810;-96
2022/04/01 02:54:48;;;;;;;;;;;;;;;14.25;59.96;97200.47;4486498;31;20249;-92
2022/04/01 02:57:13;;;;;;;;;;;;;;;14.29;59.97;97202.69;4487081;31;20418;-95
2022/04/01 02:59:38;;;;;;;;;;;;;;;14.37;59.97;97194.97;4488595;31;20339;-95
2022/04/01 03:02:04;;;;;;;;;;;;;;;14.32;59.96;97197.19;4470927;32;19973;-95
2022/04/01 03:04:29;;;;;;;;;;;;;;;14.41;59.96;97198.16;4470938;32;20004;-95
2022/04/01 03:06:54;;;;;;;;;;;;;;;14.19;59.96;97191.34;4458793;32;19988;-95
2022/04/01 03:09:19;;;;;;;;;;;;;;;14.46;59.97;97184.72;4460301;32;19992;-96
2022/04/01 03:11:45;;;;;;;;;;;;;;;14.58;59.98;97181.00;4458635;32;19987;-95
2022/04/01 03:14:10;;;;;;;;;;;;;;;14.59;59.98;97190.50;4460218;32;19988;-96
2022/04/01 03:16:39;;;;;;;;;;;;;;;14.55;59.97;97196.97;4461031;32;19988;-96
2022/04/01 03:19:08;;;;;;;;;;;;;;;14.50;59.98;97210.47;4461369;32;20033;-96
2022/04/01 03:21:34;;;;;;;;;;;;;;;14.46;59.97;97221.34;4473662;32;20005;-96
2022/04/01 03:24:01;;;;;;;;;;;;;;;14.55;59.97;97223.16;4458609;32;20008;-95
2022/04/01 03:26:28;;;;;;;;;;;;;;;14.51;59.97;97208.69;4458949;32;20011;-95
2022/04/01 03:28:54;;;;;;;;;;;;;;;14.79;60.00;97186.09;4458875;32;19991;-95
2022/04/01 03:31:20;;;;;;;;;;;;;;;14.84;59.99;97186.50;4461910;32;19989;-96
2022/04/01 03:33:45;;;;;;;;;;;;;;;14.69;59.98;97181.72;4463274;32;20341;-95
2022/04/01 03:36:13;;;;;;;;;;;;;;;14.39;59.97;97190.44;4462545;32;19992;-96
2022/04/01 03:38:44;;;;;;;;;;;;;;;14.34;59.97;97195.25;4477780;32;19981;-96
2022/04/01 03:41:29;;;;;;;;;;;;;;;14.28;59.96;97201.03;4464763;32;19972;-96
2022/04/01 03:44:00;;;;;;;;;;;;;;;14.43;59.97;97207.59;4481017;32;19992;-96
2022/04/01 03:46:59;;;;;;;;;;;;;;;14.45;59.97;97204.00;4479537;32;19969;-96
2022/04/01 03:49:35;;;;;;;;;;;;;;;14.51;59.97;97206.06;4485909;32;19952;-96
2022/04/01 03:52:04;;;;;;;;;;;;;;;14.27;59.97;97199.38;4476128;32;19969;-95
2022/04/01 03:54:31;;;;;;;;;;;;;;;14.22;59.96;97196.34;4459399;32;20660;-96
2022/04/01 03:56:58;;;;;;;;;;;;;;;14.34;59.97;97210.13;4459242;32;19992;-96
2022/04/01 03:59:57;;;;;;;;;;;;;;;14.38;59.97;97207.09;4459058;32;20775;-95
2022/04/01 04:02:40;;;;;;;;;;;;;;;;;;;;;
2022/04/01 04:05:09;;;;;;;;;;;;;;;14.50;59.98;97200.00;4519963;26;35976;-92
2022/04/01 04:07:40;;;;;;;;;;;;;;;14.35;59.97;97204.75;4460487;32;20041;-96
2022/04/01 04:10:11;;;;;;;;;;;;;;;14.24;59.95;97206.69;4446899;32;19965;-94
2022/04/01 04:12:39;;;;;;;;;;;;;;;14.29;59.97;97201.84;4467044;32;20009;-96
2022/04/01 04:15:10;;;;;;;;;;;;;;;14.35;59.97;97188.22;4464341;32;19996;-95
2022/04/01 04:17:36;;;;;;;;;;;;;;;14.63;59.98;97174.38;4458830;32;20085;-96
2022/04/01 04:20:02;;;;;;;;;;;;;;;14.78;59.98;97166.94;4472310;32;19948;-95
2022/04/01 04:22:32;;;;;;;;;;;;;;;14.82;59.99;97160.47;4472118;32;19973;-95
2022/04/01 04:25:04;;;;;;;;;;;;;;;14.60;59.98;97164.19;4446623;32;19961;-95
2022/04/01 04:27:29;;;;;;;;;;;;;;;14.55;59.97;97170.81;4458761;32;19997;-95
2022/04/01 04:30:08;;;;;;;;;;;;;;;14.59;59.98;97170.38;4458408;32;19977;-95
2022/04/01 04:32:38;;;;;;;;;;;;;;;14.55;59.98;97165.56;4446337;32;19988;-95
2022/04/01 04:35:07;;;;;;;;;;;;;;;14.56;59.98;97168.03;4446059;32;20362;-96
2022/04/01 04:37:36;;;;;;;;;;;;;;;14.47;59.97;97170.66;4446426;32;20676;-95
2022/04/01 04:40:01;;;;;;;;;;;;;;;14.29;59.96;97173.91;4447392;32;19984;-95
2022/04/01 04:42:27;;;;;;;;;;;;;;;14.25;59.96;97187.41;4457546;32;19993;-94
2022/04/01 04:45:04;;;;;;;;;;;;;;;14.24;59.96;97178.72;4461360;32;19961;-91
2022/04/01 04:47:30;;;;;;;;;;;;;;;14.43;59.97;97185.78;4460294;32;19988;-95
2022/04/01 04:49:57;;;;;;;;;;;;;;;14.40;59.97;97191.25;4460479;32;19987;-94
2022/04/01 04:52:23;;;;;;;;;;;;;;;14.32;59.96;97191.13;4446379;32;20001;-95
2022/04/01 04:54:50;;;;;;;;;;;;;;;14.28;59.97;97198.41;4445474;32;19985;-94
2022/04/01 04:57:15;;;;;;;;;;;;;;;14.39;59.97;97200.06;4458489;32;21027;-94
2022/04/01 04:59:41;;;;;;;;;;;;;;;14.59;59.98;97198.34;4471456;32;20056;-95
2022/04/01 05:02:06;;;;;;;;;;;;;;;14.68;59.99;97192.31;4445315;32;19973;-94
2022/04/01 05:04:39;;;;;;;;;;;;;;;14.65;59.98;97188.16;4458367;32;20000;-96
2022/04/01 05:07:05;;;;;;;;;;;;;;;14.57;59.99;97190.63;4471090;32;19993;-95
2022/04/01 05:09:33;;;;;;;;;;;;;;;14.58;59.98;97199.31;4471525;32;20778;-94
2022/04/01 05:12:03;;;;;;;;;;;;;;;14.37;59.97;97205.44;4471538;32;19992;-95
2022/04/01 05:14:38;;;;;;;;;;;;;;;14.36;59.97;97210.81;4445193;32;20048;-94
2022/04/01 05:17:06;;;;;;;;;;;;;;;14.30;59.96;97214.81;4445231;32;20011;-94
2022/04/01 05:19:36;;;;;;;;;;;;;;;14.29;59.97;97210.53;4446177;32;20011;-93
2022/04/01 05:22:08;;;;;;;;;;;;;;;14.29;59.96;97218.37;4470988;32;20386;-94
2022/04/01 05:24:33;;;;;;;;;;;;;;;14.25;59.96;97206.53;4444335;32;19993;-94
2022/04/01 05:27:00;;;;;;;;;;;;;;;14.13;59.95;97211.03;4470220;32;20108;-93
2022/04/01 05:29:26;;;;;;;;;;;;;;;14.16;59.96;97211.72;4444958;32;20390;-94
2022/04/01 05:32:02;;;;;;;;;;;;;;;14.14;59.96;97217.09;4445729;32;19993;-94
2022/04/01 05:34:33;;;;;;;;;;;;;;;14.06;59.95;97209.09;4457771;32;20036;-94
2022/04/01 05:36:58;;;;;;;;;;;;;;;14.24;59.96;97204.88;4444995;32;19996;-95
2022/04/01 05:39:27;;;;;;;;;;;;;;;14.05;59.95;97213.50;4457428;32;19981;-93
2022/04/01 05:41:53;;;;;;;;;;;;;;;14.00;59.94;97212.25;4446474;32;20026;-92
2022/04/01 05:44:18;;;;;;;;;;;;;;;13.88;59.94;97208.06;4457358;32;19981;-93
2022/04/01 05:46:44;;;;;;;;;;;;;;;13.77;59.94;97215.03;4457502;32;20321;-94
2022/04/01 05:49:09;;;;;;;;;;;;;;;13.90;59.95;97203.50;4457004;32;19973;-92
2022/04/01 05:51:35;;;;;;;;;;;;;;;13.79;59.94;97207.88;4457787;32;19991;-93
2022/04/01 05:54:00;;;;;;;;;;;;;;;13.91;59.95;97210.41;4457282;32;20637;-94
2022/04/01 05:56:26;;;;;;;;;;;;;;;13.95;59.94;97214.41;4457349;32;20000;-94
2022/04/01 05:58:52;;;;;;;;;;;;;;;13.86;59.94;97223.03;4444511;32;20014;-94
2022/04/01 06:01:36;;;;;;;;;;;;;;;13.73;59.94;97226.72;4458165;32;19987;-94
2022/04/01 06:04:16;;;;;;;;;;;;;;;13.60;59.93;97231.31;4470311;32;20345;-93
2022/04/01 06:06:42;;;;;;;;;;;;;;;13.44;59.92;97226.53;4443425;32;20052;-94
2022/04/01 06:09:11;;;;;;;;;;;;;;;13.25;59.90;97218.59;4457319;32;20014;-94
2022/04/01 06:11:41;;;;;;;;;;;;;;;13.07;59.90;97220.91;4469575;32;19985;-92
2022/04/01 06:14:12;;;;;;;;;;;;;;;13.04;59.89;97220.34;4456521;32;20056;-93
2022/04/01 06:16:45;;;;;;;;;;;;;;;13.07;59.90;97218.31;4470953;32;19992;-93
2022/04/01 06:19:24;;;;;;;;;;;;;;;13.08;59.90;97217.34;4443527;32;19969;-93
2022/04/01 06:21:55;;;;;;;;;;;;;;;13.16;59.90;97217.53;4445321;32;20876;-93
2022/04/01 06:24:28;;;;;;;;;;;;;;;12.98;59.90;97215.59;4444091;32;19977;-94
2022/04/01 06:27:00;;;;;;;;;;;;;;;12.89;59.88;97209.34;4444484;32;19997;-94
2022/04/01 06:29:30;;;;;;;;;;;;;;;12.98;59.89;97216.44;4444334;32;19973;-94
2022/04/01 06:31:57;;;;;;;;;;;;;;;13.03;59.89;97219.50;4444105;32;20007;-96
2022/04/01 06:34:25;;;;;;;;;;;;;;;13.10;59.90;97228.50;4444385;32;20004;-95
2022/04/01 06:36:51;;;;;;;;;;;;;;;12.98;59.89;97228.66;4444041;32;19960;-93
2022/04/01 06:39:35;;;;;;;;;;;;;;;13.07;59.90;97230.53;4457454;32;20069;-95
2022/04/01 06:42:00;;;;;;;;;;;;;;;12.90;59.89;97230.12;4471721;32;19977;-93
2022/04/01 06:44:31;;;;;;;;;;;;;;;12.98;59.90;97234.69;4458156;32;20000;-94
2022/04/01 06:46:56;;;;;;;;;;;;;;;13.00;59.90;97234.56;4456263;32;20049;-95
2022/04/01 06:49:22;;;;;;;;;;;;;;;13.20;59.91;97231.19;4458798;32;19981;-96
2022/04/01 06:51:47;;;;;;;;;;;;;;;13.14;59.91;97229.06;4458646;32;20007;-92
2022/04/01 06:54:12;;;;;;;;;;;;;;;13.27;59.92;97224.53;4458409;32;20031;-95
2022/04/01 06:56:38;;;;;;;;;;;;;;;13.39;59.92;97226.09;4459974;32;20023;-95
2022/04/01 06:59:05;;;;;;;;;;;;;;;13.56;59.92;97224.69;4459037;32;20395;-95
2022/04/01 07:01:30;;;;;;;;;;;;;;;13.62;59.93;97231.19;4458752;32;20010;-93
2022/04/01 07:03:55;;;;;;;;;;;;;;;13.62;59.93;97226.78;4458797;32;19985;-93
2022/04/01 07:06:22;;;;;;;;;;;;;;;13.43;59.92;97219.66;4468983;32;20047;-94
2022/04/01 07:08:51;;;;;;;;;;;;;;;13.18;59.90;97220.88;4455949;32;19953;-95
2022/04/01 07:11:16;;;;;;;;;;;;;;;13.26;59.90;97229.88;4455412;32;19957;-94
2022/04/01 07:13:41;;;;;;;;;;;;;;;13.30;59.91;97228.66;4456314;32;20034;-95
2022/04/01 07:16:07;;;;;;;;;;;;;;;13.17;59.90;97240.13;4457992;32;19988;-95
2022/04/01 07:18:33;;;;;;;;;;;;;;;13.05;59.90;97241.09;4456262;32;20293;-94
2022/04/01 07:20:58;;;;;;;;;;;;;;;12.94;59.89;97243.75;4444299;32;19985;-94
2022/04/01 07:23:23;;;;;;;;;;;;;;;12.83;59.89;97246.41;4457577;32;19990;-95
2022/04/01 07:25:48;;;;;;;;;;;;;;;12.31;59.86;97247.97;4457713;32;20041;-95
2022/04/01 07:28:14;;;;;;;;;;;;;;;12.25;59.85;97251.88;4456203;32;20022;-93
2022/04/01 07:30:40;;;;;;;;;;;;;;;12.06;59.85;97253.41;4456362;32;20270;-94
2022/04/01 07:33:05;;;;;;;;;;;;;;;12.05;59.84;97251.75;4468748;32;20023;-93
2022/04/01 07:35:30;;;;;;;;;;;;;;;12.05;59.84;97246.53;4456369;32;20609;-94
2022/04/01 07:38:05;;;;;;;;;;;;;;;11.91;59.84;97245.84;4456844;32;19995;-94
2022/04/01 07:40:30;;;;;;;;;;;;;;;11.59;59.81;97250.91;4443382;32;19999;-94
2022/04/01 07:42:55;;;;;;;;;;;;;;;11.63;59.82;97252.31;4443201;32;19989;-94
2022/04/01 07:45:21;;;;;;;;;;;;;;;11.64;59.82;97253.97;4456653;32;20411;-94
2022/04/01 07:47:46;;;;;;;;;;;;;;;11.74;59.83;97261.09;4456278;32;19987;-94
2022/04/01 07:50:15;;;;;;;;;;;;;;;11.53;59.82;97259.16;4468432;32;20007;-95
2022/04/01 07:52:42;;;;;;;;;;;;;;;11.49;59.81;97262.13;4443402;32;20003;-95
2022/04/01 07:55:08;;;;;;;;;;;;;;;11.23;59.80;97270.09;4456515;32;19997;-93
2022/04/01 07:57:33;;;;;;;;;;;;;;;11.28;59.80;97262.78;4456805;32;19977;-93
2022/04/01 07:59:58;;;;;;;;;;;;;;;11.08;59.79;97266.84;4456243;32;20306;-95
2022/04/01 08:02:23;;;;;;;;;;;;;;;11.18;59.79;97274.00;4455730;32;20045;-95
2022/04/01 08:04:49;;;;;;;;;;;;;;;11.25;59.80;97275.19;4456360;32;20019;-94
2022/04/01 08:07:14;;;;;;;;;;;;;;;11.17;59.80;97278.38;4458743;32;20020;-95
2022/04/01 08:09:40;;;;;;;;;;;;;;;11.25;59.80;97285.59;4445817;32;20026;-94
2022/04/01 08:12:05;;;;;;;;;;;;;;;11.33;59.81;97285.84;4458541;32;19981;-94
2022/04/01 08:14:30;;;;;;;;;;;;;;;11.41;59.81;97298.34;4458990;32;20040;-94
2022/04/01 08:16:56;;;;;;;;;;;;;;;11.40;59.81;97288.88;4459312;32;19991;-94
2022/04/01 08:19:22;;;;;;;;;;;;;;;11.35;59.80;97287.41;4473032;32;20046;-93
2022/04/01 08:21:49;;;;;;;;;;;;;;;11.31;59.81;97295.56;4459367;32;20291;-94
2022/04/01 08:24:14;;;;;;;;;;;;;;;11.21;59.80;97285.00;4461105;32;19989;-94
2022/04/01 08:26:39;;;;;;;;;;;;;;;11.20;59.79;97291.16;4462233;32;20011;-93
2022/04/01 08:29:05;;;;;;;;;;;;;;;11.34;59.80;97297.94;4466180;32;20026;-93
2022/04/01 08:31:30;;;;;;;;;;;;;;;11.38;59.81;97304.59;4466262;32;19992;-93
2022/04/01 08:33:56;;;;;;;;;;;;;;;11.47;59.82;97305.69;4458713;32;20012;-94
2022/04/01 08:36:21;;;;;;;;;;;;;;;11.47;59.81;97310.91;4458455;32;20039;-95
2022/04/01 08:38:46;;;;;;;;;;;;;;;11.42;59.81;97305.19;4458426;32;20624;-94
2022/04/01 08:41:15;;;;;;;;;;;;;;;11.18;59.79;97319.09;4458654;32;20024;-93
2022/04/01 08:43:42;;;;;;;;;;;;;;;11.04;59.79;97317.47;4445413;32;19988;-94
2022/04/01 08:46:08;;;;;;;;;;;;;;;11.05;59.79;97318.31;4458508;32;19949;-94
2022/04/01 08:48:33;;;;;;;;;;;;;;;11.04;59.79;97320.09;4458224;32;20253;-95
2022/04/01 08:50:59;;;;;;;;;;;;;;;10.99;59.79;97327.41;4445305;32;20060;-94
2022/04/01 08:53:24;;;;;;;;;;;;;;;11.03;59.79;97330.59;4459727;32;20344;-94
2022/04/01 08:55:51;;;;;;;;;;;;;;;11.04;59.78;97333.09;4459720;32;19993;-95
2022/04/01 08:58:17;;;;;;;;;;;;;;;11.00;59.79;97339.47;4446516;32;19973;-94
2022/04/01 09:00:43;;;;;;;;;;;;;;;11.08;59.80;97344.94;4458202;32;19989;-93
2022/04/01 09:03:09;;;;;;;;;;;;;;;11.08;59.79;97342.34;4458763;32;19994;-94
2022/04/01 09:05:34;;;;;;;;;;;;;;;10.95;59.78;97346.78;4458530;32;19997;-94
2022/04/01 09:08:03;;;;;;;;;;;;;;;10.79;59.78;97345.38;4458324;32;20016;-95
2022/04/01 09:10:31;;;;;;;;;;;;;;;10.58;59.77;97345.94;4471511;32;20318;-95
2022/04/01 09:13:02;;;;;;;;;;;;;;;10.76;59.77;97354.22;4447843;32;20000;-93
2022/04/01 09:15:41;;;;;;;;;;;;;;;10.77;59.78;97351.53;4444842;32;20013;-94
2022/04/01 09:18:06;;;;;;;;;;;;;;;10.79;59.78;97353.19;4444813;32;20005;-94
2022/04/01 09:20:41;;;;;;;;;;;;;;;10.84;59.79;97345.88;4458128;32;20036;-94
2022/04/01 09:23:07;;;;;;;;;;;;;;;10.94;59.78;97339.91;4472197;32;20395;-94
2022/04/01 09:25:32;;;;;;;;;;;;;;;10.89;59.78;97354.22;4458427;32;19981;-95
2022/04/01 09:27:57;;;;;;;;;;;;;;;11.01;59.79;97348.09;4457921;32;20007;-94
2022/04/01 09:30:23;;;;;;;;;;;;;;;10.75;59.77;97357.78;4458140;32;19989;-94
2022/04/01 09:32:53;;;;;;;;;;;;;;;10.65;59.77;97360.22;4447470;32;19971;-93
2022/04/01 09:35:20;;;;;;;;;;;;;;;10.63;59.77;97356.03;4445011;32;20365;-94
2022/04/01 09:37:46;;;;;;;;;;;;;;;10.59;59.76;97349.37;4458322;32;19981;-94
2022/04/01 09:40:12;;;;;;;;;;;;;;;10.48;59.76;97368.34;4444960;32;19981;-94
2022/04/01 09:42:38;;;;;;;;;;;;;;;10.31;59.75;97366.91;4445190;32;20026;-94
2022/04/01 09:45:03;;;;;;;;;;;;;;;10.55;59.77;97364.37;4445026;32;19992;-94
2022/04/01 09:47:36;;;;;;;;;;;;;;;10.44;59.76;97364.31;4457996;32;19980;-94
2022/04/01 09:50:04;;;;;;;;;;;;;;;10.59;59.76;97368.41;4443061;32;20084;-94
2022/04/01 09:52:34;;;;;;;;;;;;;;;10.54;59.76;97364.47;4442697;32;20007;-93
2022/04/01 09:54:59;;;;;;;;;;;;;;;10.32;59.76;97367.75;4444597;32;20052;-94
2022/04/01 09:57:24;;;;;;;;;;;;;;;10.32;59.76;97375.53;4446238;32;19980;-92
2022/04/01 09:59:51;;;;;;;;;;;;;;;10.31;59.74;97376.47;4448502;32;20019;-95
2022/04/01 10:02:17;;;;;;;;;;;;;;;10.31;59.75;97374.72;4443086;32;20014;-90
2022/04/01 10:04:42;;;;;;;;;;;;;;;10.39;59.75;97382.81;4452858;32;19978;-95
2022/04/01 10:07:08;;;;;;;;;;;;;;;10.55;59.76;97366.97;4445712;32;19992;-94
2022/04/01 10:09:34;;;;;;;;;;;;;;;10.57;59.76;97374.66;4442326;32;19996;-93
2022/04/01 10:12:01;;;;;;;;;;;;;;;10.64;59.77;97379.31;4429422;32;20008;-94
2022/04/01 10:14:26;;;;;;;;;;;;;;;10.50;59.76;97387.28;4443444;32;19953;-94
2022/04/01 10:16:52;;;;;;;;;;;;;;;10.22;59.74;97384.91;4443905;32;20017;-94
2022/04/01 10:19:19;;;;;;;;;;;;;;;10.30;59.75;97387.81;4443816;32;19993;-93
2022/04/01 10:21:44;;;;;;;;;;;;;;;10.34;59.75;97391.88;4431028;32;19993;-94
2022/04/01 10:24:14;;;;;;;;;;;;;;;10.25;59.75;97393.34;4431251;32;19977;-93
2022/04/01 10:26:45;;;;;;;;;;;;;;;10.08;59.73;97399.63;4431280;32;19967;-93
2022/04/01 10:29:11;;;;;;;;;;;;;;;10.07;59.74;97404.94;4432468;32;20016;-95
2022/04/01 10:31:36;;;;;;;;;;;;;;;10.08;59.73;97406.59;4444192;32;20330;-94
2022/04/01 10:34:21;;;;;;;;;;;;;;;10.12;59.74;97408.87;4444096;32;20289;-94
2022/04/01 10:36:53;;;;;;;;;;;;;;;10.07;59.73;97412.75;4431225;32;20012;-94
2022/04/01 10:39:19;;;;;;;;;;;;;;;9.92;59.73;97411.97;4431269;32;19961;-94
2022/04/01 10:42:04;;;;;;;;;;;;;;;9.92;59.72;97405.94;4443906;32;20010;-94
2022/04/01 10:44:49;;;;;;;;;;;;;;;10.04;59.74;97412.94;4431383;32;19973;-95
2022/04/01 10:47:14;;;;;;;;;;;;;;;9.93;59.72;97411.03;4431851;32;19977;-95
2022/04/01 10:52:23;;;;;;;;;;;;;;;9.64;59.71;97417.34;4446314;32;19996;-94
2022/04/01 10:55:08;;;;;;;;;;;;;;;9.51;59.71;97425.13;4444090;32;19981;-95
2022/04/01 10:57:44;;;;;;;;;;;;;;;9.72;59.72;97428.91;4430767;32;19980;-94
2022/04/01 11:00:14;;;;;;;;;;;;;;;9.72;59.72;97428.91;4431090;32;20008;-94
2022/04/01 11:02:39;;;;;;;;;;;;;;;9.90;59.72;97429.44;4444065;32;19990;-94
2022/04/01 11:05:20;;;;;;;;;;;;;;;9.89;59.73;97435.56;4446171;32;20041;-94
2022/04/01 11:07:46;;;;;;;;;;;;;;;9.94;59.73;97428.34;4444078;32;20024;-94
2022/04/01 11:10:22;;;;;;;;;;;;;;;10.22;59.74;97434.31;4445894;32;20590;-93
2022/04/01 11:12:51;;;;;;;;;;;;;;;10.03;59.73;97432.06;4430714;32;20040;-93
2022/04/01 11:15:19;;;;;;;;;;;;;;;10.16;59.75;97431.13;4443559;32;19977;-94
2022/04/01 11:17:49;;;;;;;;;;;;;;;10.43;59.75;97433.69;4443532;32;20047;-94
2022/04/01 11:20:14;;;;;;;;;;;;;;;10.46;59.75;97432.66;4456157;32;19991;-94
2022/04/01 11:22:39;;;;;;;;;;;;;;;10.59;59.76;97433.44;4456648;32;19993;-94
2022/04/01 11:25:25;;;;;;;;;;;;;;;10.66;59.76;97426.91;4455923;32;19993;-94
2022/04/01 11:27:51;;;;;;;;;;;;;;;10.73;59.77;97425.53;4456596;32;20050;-93
2022/04/01 11:30:16;;;;;;;;;;;;;;;10.60;59.76;97422.09;4433525;32;19981;-94
2022/04/01 11:32:43;;;;;;;;;;;;;;;10.49;59.76;97429.00;4432429;32;20070;-94
2022/04/01 11:35:09;;;;;;;;;;;;;;;10.48;59.76;97432.53;4431322;32;19969;-94
2022/04/01 11:37:41;;;;;;;;;;;;;;;10.55;59.77;97437.22;4443901;32;19999;-94
2022/04/01 11:40:08;;;;;;;;;;;;;;;10.53;59.75;97428.69;4430562;32;20000;-94
2022/04/01 11:42:33;;;;;;;;;;;;;;;10.36;59.75;97429.81;4430752;32;20001;-94
2022/04/01 11:44:59;;;;;;;;;;;;;;;10.55;59.77;97437.22;4443150;32;19973;-95
2022/04/01 11:47:25;;;;;;;;;;;;;;;10.68;59.77;97422.44;4443236;32;19991;-94
2022/04/01 11:50:04;;;;;;;;;;;;;;;10.60;59.76;97429.09;4430703;32;19989;-94
2022/04/01 11:52:39;;;;;;;;;;;;;;;10.55;59.76;97431.19;4430716;32;19975;-94
2022/04/01 11:55:15;;;;;;;;;;;;;;;10.68;59.77;97417.22;4430303;32;19973;-94
2022/04/01 11:57:40;;;;;;;;;;;;;;;10.84;59.79;97423.94;4430548;32;20032;-94
2022/04/01 12:00:18;;;;;;;;;;;;;;;10.65;59.77;97424.41;4443180;32;20020;-93
2022/04/01 12:02:46;;;;;;;;;;;;;;;10.93;59.79;97415.50;4430074;32;19997;-95
2022/04/01 12:05:12;;;;;;;;;;;;;;;10.89;59.78;97414.91;4430077;32;19950;-94
2022/04/01 12:10:22;;;;;;;;;;;;;;;11.11;59.79;97423.75;4444792;32;20584;-94
2022/04/01 12:12:58;;;;;;;;;;;;;;;11.08;59.80;97424.81;4429990;32;20636;-95
2022/04/01 12:15:30;;;;;;;;;;;;;;;11.19;59.80;97417.09;4430245;32;20048;-93
2022/04/01 12:17:55;;;;;;;;;;;;;;;11.34;59.80;97405.56;4430239;32;19996;-94
2022/04/01 12:20:20;;;;;;;;;;;;;;;11.41;59.81;97423.38;4442754;32;20020;-94
2022/04/01 12:22:46;;;;;;;;;;;;;;;11.44;59.80;97415.31;4442573;32;19988;-95
2022/04/01 12:25:11;;;;;;;;;;;;;;;11.40;59.81;97422.53;4443099;32;20247;-94
2022/04/01 12:27:52;;;;;;;;;;;;;;;11.46;59.82;97426.47;4442738;32;19995;-94
2022/04/01 12:30:27;;;;;;;;;;;;;;;11.38;59.81;97429.62;4429301;32;19992;-94
2022/04/01 12:32:54;;;;;;;;;;;;;;;11.20;59.80;97444.78;4429969;32;20001;-94
2022/04/01 12:35:19;;;;;;;;;;;;;;;11.14;59.79;97439.19;4429663;32;19973;-93
2022/04/01 12:37:44;;;;;;;;;;;;;;;11.08;59.80;97435.22;4442168;32;20015;-94
2022/04/01 12:40:10;;;;;;;;;;;;;;;11.16;59.80;97447.72;4443236;32;19992;-93
2022/04/01 12:42:38;;;;;;;;;;;;;;;11.09;59.80;97460.31;4442613;32;19994;-93
2022/04/01 12:45:05;;;;;;;;;;;;;;;11.00;59.79;97461.81;4442473;32;19985;-94
2022/04/01 12:47:32;;;;;;;;;;;;;;;11.20;59.79;97456.97;4429608;32;20348;-94
2022/04/01 12:49:58;;;;;;;;;;;;;;;10.98;59.78;97465.47;4442544;32;19999;-94
2022/04/01 12:52:24;;;;;;;;;;;;;;;11.00;59.79;97461.81;4442629;32;19997;-94
2022/04/01 12:54:50;;;;;;;;;;;;;;;11.01;59.79;97466.06;4442369;32;20030;-94
2022/04/01 12:57:16;;;;;;;;;;;;;;;10.72;59.77;97464.69;4429642;32;19981;-93
2022/04/01 12:59:41;;;;;;;;;;;;;;;10.63;59.77;97449.69;4442350;32;20253;-94
2022/04/01 13:02:17;;;;;;;;;;;;;;;10.44;59.76;97465.72;4429836;32;20004;-94